createdAt,value
2019-02-15T00:01:25.208Z,11.40
2019-02-15T00:03:53.505Z,11.15
2019-02-15T00:06:21.829Z,11.60
2019-02-15T00:08:50.133Z,11.15
2019-02-15T00:11:18.461Z,10.98
2019-02-15T00:13:46.772Z,10.52
2019-02-15T00:16:15.147Z,10.75
2019-02-15T00:18:48.449Z,11.40
2019-02-15T00:21:17.343Z,11.60
2019-02-15T00:23:46.507Z,11.90
2019-02-15T00:26:16.525Z,11.85
2019-02-15T00:28:43.264Z,11.75
2019-02-15T00:31:11.527Z,11.38
2019-02-15T00:33:39.783Z,12.10
2019-02-15T00:36:08.908Z,11.93
2019-02-15T00:38:37.167Z,12.40
2019-02-15T00:41:05.456Z,12.47
2019-02-15T00:43:33.827Z,11.48
2019-02-15T00:46:04.983Z,12.02
2019-02-15T00:48:33.493Z,11.95
2019-02-15T00:51:04.436Z,13.00
2019-02-15T00:53:36.180Z,13.35
2019-02-15T00:56:20.974Z,13.18
2019-02-15T00:58:53.320Z,13.10
2019-02-15T01:01:27.988Z,12.13
2019-02-15T01:03:56.296Z,12.20
2019-02-15T01:06:36.319Z,11.65
2019-02-15T01:09:09.281Z,12.18
2019-02-15T01:11:40.342Z,11.40
2019-02-15T01:14:08.631Z,11.80
2019-02-15T01:16:36.904Z,12.33
2019-02-15T01:19:05.344Z,12.75
2019-02-15T01:21:34.413Z,11.32
2019-02-15T01:24:02.741Z,12.80
2019-02-15T01:26:36.579Z,12.27
2019-02-15T01:29:07.412Z,12.32
2019-02-15T01:31:51.376Z,12.10
2019-02-15T01:34:37.455Z,12.37
2019-02-15T01:37:09.192Z,12.60
2019-02-15T01:39:41.218Z,12.43
2019-02-15T01:42:12.180Z,13.00
2019-02-15T01:44:40.491Z,12.90
2019-02-15T01:47:08.768Z,12.57
2019-02-15T01:49:37.103Z,11.63
2019-02-15T01:52:05.436Z,11.80
2019-02-15T01:54:34.603Z,12.15
2019-02-15T01:57:03.015Z,12.02
2019-02-15T01:59:32.166Z,12.23
2019-02-15T02:02:00.472Z,12.10
2019-02-15T02:04:28.796Z,11.98
2019-02-15T02:06:57.831Z,13.30
2019-02-15T02:09:26.157Z,12.65
2019-02-15T02:11:55.291Z,12.20
2019-02-15T02:14:23.559Z,12.50
2019-02-15T02:16:51.866Z,12.75
2019-02-15T02:19:20.330Z,12.50
2019-02-15T02:21:48.651Z,12.88
2019-02-15T02:24:16.974Z,12.50
2019-02-15T02:26:45.242Z,11.88
2019-02-15T02:29:13.532Z,12.80
2019-02-15T02:31:41.949Z,12.00
2019-02-15T02:34:11.021Z,11.95
2019-02-15T02:36:49.123Z,11.95
2019-02-15T02:39:17.514Z,12.45
2019-02-15T02:41:45.861Z,12.73
2019-02-15T02:44:14.240Z,12.95
2019-02-15T02:46:42.499Z,12.40
2019-02-15T02:49:10.866Z,12.35
2019-02-15T02:51:39.113Z,12.63
2019-02-15T02:54:07.415Z,11.85
2019-02-15T02:56:35.712Z,12.20
2019-02-15T02:59:04.049Z,11.43
2019-02-15T03:01:32.375Z,11.73
2019-02-15T03:04:00.689Z,11.60
2019-02-15T03:06:29.852Z,12.02
2019-02-15T03:08:58.194Z,10.90
2019-02-15T03:11:26.491Z,11.93
2019-02-15T03:13:54.783Z,11.12
2019-02-15T03:16:23.080Z,10.95
2019-02-15T03:18:52.281Z,11.30
2019-02-15T03:21:21.334Z,11.20
2019-02-15T03:23:49.745Z,11.15
2019-02-15T03:26:18.138Z,11.10
2019-02-15T03:28:47.204Z,10.93
2019-02-15T03:31:15.485Z,11.13
2019-02-15T03:33:43.798Z,10.75
2019-02-15T03:36:12.121Z,10.57
2019-02-15T03:38:46.113Z,11.20
2019-02-15T03:41:20.249Z,10.40
2019-02-15T03:43:48.621Z,10.75
2019-02-15T03:46:16.903Z,10.15
2019-02-15T03:48:45.298Z,9.82
2019-02-15T03:51:13.579Z,10.40
2019-02-15T03:53:41.855Z,10.27
2019-02-15T03:56:10.944Z,10.30
2019-02-15T03:58:39.326Z,10.70
2019-02-15T04:01:07.611Z,10.05
2019-02-15T04:03:35.924Z,10.18
2019-02-15T04:06:04.221Z,9.75
2019-02-15T04:08:32.545Z,10.32
2019-02-15T04:11:00.838Z,10.30
2019-02-15T04:13:29.130Z,10.63
2019-02-15T04:15:57.442Z,10.80
2019-02-15T04:18:25.816Z,11.48
2019-02-15T04:20:54.111Z,11.12
2019-02-15T04:23:23.305Z,11.45
2019-02-15T04:25:51.681Z,11.38
2019-02-15T04:28:19.969Z,11.02
2019-02-15T04:30:49.039Z,10.95
2019-02-15T04:33:17.323Z,10.82
2019-02-15T04:35:46.393Z,11.52
2019-02-15T04:38:14.682Z,11.38
2019-02-15T04:40:42.986Z,12.13
2019-02-15T04:43:11.284Z,11.27
2019-02-15T04:45:39.633Z,11.80
2019-02-15T04:48:08.695Z,11.63
2019-02-15T04:50:37.006Z,11.27
2019-02-15T04:53:06.076Z,11.00
2019-02-15T04:55:34.435Z,11.18
2019-02-15T04:58:02.727Z,11.18
2019-02-15T05:00:31.090Z,11.85
2019-02-15T05:02:59.466Z,13.57
2019-02-15T05:05:27.853Z,14.47
2019-02-15T05:07:56.187Z,12.98
2019-02-15T05:10:24.475Z,13.43
2019-02-15T05:12:52.908Z,12.85
2019-02-15T05:15:21.975Z,13.18
2019-02-15T05:17:50.260Z,13.73
2019-02-15T05:20:18.665Z,13.05
2019-02-15T05:22:47.749Z,12.75
2019-02-15T05:25:16.908Z,12.75
2019-02-15T05:27:45.298Z,12.70
2019-02-15T05:30:13.667Z,12.23
2019-02-15T05:32:41.995Z,12.68
2019-02-15T05:35:10.295Z,12.27
2019-02-15T05:37:39.410Z,13.18
2019-02-15T05:40:07.788Z,13.50
2019-02-15T05:42:36.174Z,12.90
2019-02-15T05:45:04.820Z,12.68
2019-02-15T05:47:33.565Z,11.95
2019-02-15T05:50:01.907Z,12.07
2019-02-15T05:52:30.234Z,12.80
2019-02-15T05:54:59.296Z,15.55
2019-02-15T05:57:27.582Z,16.75
2019-02-15T05:59:55.880Z,15.02
2019-02-15T06:02:24.253Z,18.07
2019-02-15T06:04:53.419Z,17.80
2019-02-15T06:07:21.724Z,15.32
2019-02-15T06:09:50.827Z,13.32
2019-02-15T06:12:19.894Z,12.15
2019-02-15T06:14:49.795Z,12.50
2019-02-15T06:17:18.105Z,12.68
2019-02-15T06:19:47.162Z,12.32
2019-02-15T06:22:15.482Z,11.45
2019-02-15T06:24:44.773Z,12.15
2019-02-15T06:27:13.936Z,11.65
2019-02-15T06:29:42.259Z,12.00
2019-02-15T06:32:10.587Z,11.05
2019-02-15T06:34:39.876Z,10.77
2019-02-15T06:37:08.184Z,11.02
2019-02-15T06:39:37.271Z,11.30
2019-02-15T06:42:05.725Z,10.75
2019-02-15T06:44:34.103Z,11.00
2019-02-15T06:47:02.411Z,10.68
2019-02-15T06:49:30.677Z,10.27
2019-02-15T06:51:58.944Z,9.93
2019-02-15T06:54:27.360Z,10.23
2019-02-15T06:56:55.691Z,9.73
2019-02-15T06:59:42.406Z,10.35
2019-02-15T07:02:20.627Z,10.07
2019-02-15T07:04:54.695Z,10.73
2019-02-15T07:07:23.093Z,11.27
2019-02-15T07:09:51.475Z,10.73
2019-02-15T07:12:19.775Z,10.45
2019-02-15T07:14:48.064Z,10.50
2019-02-15T07:17:17.134Z,10.68
2019-02-15T07:19:45.429Z,10.45
2019-02-15T07:22:14.595Z,11.00
2019-02-15T07:24:42.890Z,10.55
2019-02-15T07:27:11.191Z,11.23
2019-02-15T07:29:39.515Z,11.27
2019-02-15T07:32:07.817Z,12.00
2019-02-15T07:34:36.102Z,12.45
2019-02-15T07:37:04.386Z,12.00
2019-02-15T07:39:33.434Z,12.32
2019-02-15T07:42:01.708Z,12.07
2019-02-15T07:44:30.028Z,12.37
2019-02-15T07:46:58.315Z,12.40
2019-02-15T07:49:27.377Z,12.23
2019-02-15T07:51:55.748Z,11.48
2019-02-15T07:54:24.040Z,12.40
2019-02-15T07:56:52.324Z,13.27
2019-02-15T07:59:20.667Z,14.35
2019-02-15T08:01:48.967Z,13.45
2019-02-15T08:04:18.050Z,13.43
2019-02-15T08:06:46.418Z,12.70
2019-02-15T08:09:14.765Z,12.00
2019-02-15T08:11:43.056Z,12.30
2019-02-15T08:14:14.892Z,11.35
2019-02-15T08:16:39.725Z,11.50
2019-02-15T08:19:08.098Z,11.50
2019-02-15T08:21:36.395Z,11.40
2019-02-15T08:24:04.751Z,11.40
2019-02-15T08:26:33.125Z,11.70
2019-02-15T08:29:01.506Z,11.48
2019-02-15T08:31:29.760Z,10.80
2019-02-15T08:33:58.164Z,12.02
2019-02-15T08:36:26.483Z,12.48
2019-02-15T08:38:54.786Z,12.77
2019-02-15T08:41:23.119Z,12.80
2019-02-15T08:43:51.399Z,11.02
2019-02-15T08:46:20.555Z,11.02
2019-02-15T08:48:48.983Z,11.38
2019-02-15T08:51:17.317Z,11.30
2019-02-15T08:53:45.645Z,10.55
2019-02-15T08:56:14.004Z,10.55
2019-02-15T08:58:43.079Z,10.75
2019-02-15T09:01:11.482Z,10.57
2019-02-15T09:03:40.543Z,10.60
2019-02-15T09:06:09.599Z,11.45
2019-02-15T09:08:37.835Z,10.67
2019-02-15T09:11:06.138Z,11.23
2019-02-15T09:13:34.497Z,11.17
2019-02-15T09:16:10.013Z,11.90
2019-02-15T09:18:31.919Z,11.70
2019-02-15T09:21:00.203Z,11.65
2019-02-15T09:23:28.495Z,10.10
2019-02-15T09:25:56.783Z,10.50
2019-02-15T09:28:25.876Z,10.30
2019-02-15T09:30:54.155Z,10.90
2019-02-15T09:33:23.249Z,11.20
2019-02-15T09:35:52.343Z,10.48
2019-02-15T09:38:20.619Z,10.23
2019-02-15T09:40:49.694Z,9.77
2019-02-15T09:43:17.980Z,9.90
2019-02-15T09:45:46.278Z,10.25
2019-02-15T09:48:15.319Z,10.02
2019-02-15T09:50:43.734Z,9.57
2019-02-15T09:53:12.906Z,10.02
2019-02-15T09:55:41.984Z,9.30
2019-02-15T09:58:10.283Z,9.20
2019-02-15T10:00:38.573Z,9.48
2019-02-15T10:03:06.883Z,9.57
2019-02-15T10:05:35.193Z,9.65
2019-02-15T10:08:03.462Z,8.68
2019-02-15T10:10:31.750Z,9.45
2019-02-15T10:13:00.132Z,9.20
2019-02-15T10:15:28.503Z,9.60
2019-02-15T10:17:56.812Z,8.98
2019-02-15T10:20:25.875Z,8.95
2019-02-15T10:22:54.265Z,9.43
2019-02-15T10:25:22.627Z,8.70
2019-02-15T10:27:50.903Z,9.13
2019-02-15T10:30:19.245Z,8.70
2019-02-15T10:32:47.555Z,9.32
2019-02-15T10:35:15.842Z,9.13
2019-02-15T10:37:45.678Z,8.55
2019-02-15T10:40:14.066Z,9.10
2019-02-15T10:42:42.289Z,8.67
2019-02-15T10:45:12.303Z,8.68
2019-02-15T10:47:40.634Z,8.75
2019-02-15T10:50:08.969Z,8.80
2019-02-15T10:52:37.263Z,8.32
2019-02-15T10:55:05.559Z,8.75
2019-02-15T10:57:33.824Z,7.97
2019-02-15T11:00:02.889Z,8.07
2019-02-15T11:02:31.215Z,6.55
2019-02-15T11:05:00.368Z,5.97
2019-02-15T11:07:28.735Z,6.00
2019-02-15T11:09:57.044Z,5.80
2019-02-15T11:12:25.430Z,5.82
2019-02-15T11:14:53.797Z,5.65
2019-02-15T11:17:22.085Z,5.30
2019-02-15T11:19:51.128Z,4.75
2019-02-15T11:22:19.808Z,4.80
2019-02-15T11:24:48.129Z,4.43
2019-02-15T11:27:17.758Z,4.45
2019-02-15T11:29:47.352Z,4.32
2019-02-15T11:32:16.931Z,4.30
2019-02-15T11:34:46.476Z,4.05
2019-02-15T11:37:16.026Z,4.32
2019-02-15T11:39:45.574Z,3.90
2019-02-15T11:42:15.076Z,3.95
2019-02-15T11:44:43.325Z,3.83
2019-02-15T11:47:13.120Z,3.97
2019-02-15T11:49:41.497Z,4.30
2019-02-15T11:52:09.821Z,4.00
2019-02-15T11:54:38.144Z,4.00
2019-02-15T11:57:06.471Z,4.22
2019-02-15T11:59:35.566Z,3.90
2019-02-15T12:02:06.495Z,4.10
2019-02-15T12:04:32.909Z,3.92
2019-02-15T12:07:01.253Z,4.20
2019-02-15T12:09:29.552Z,4.03
2019-02-15T12:11:57.853Z,4.00
2019-02-15T12:14:26.195Z,4.05
2019-02-15T12:16:54.545Z,4.20
2019-02-15T12:19:22.846Z,3.90
2019-02-15T12:21:51.151Z,3.50
2019-02-15T12:24:19.457Z,3.90
2019-02-15T12:26:48.499Z,3.85
2019-02-15T12:29:16.763Z,4.10
2019-02-15T12:31:45.138Z,3.72
2019-02-15T12:34:13.552Z,3.75
2019-02-15T12:36:41.951Z,3.83
2019-02-15T12:39:12.746Z,3.70
2019-02-15T12:41:38.676Z,4.15
2019-02-15T12:44:06.934Z,4.10
2019-02-15T12:46:35.206Z,4.03
2019-02-15T12:49:03.678Z,4.12
2019-02-15T12:51:32.057Z,3.90
2019-02-15T12:54:00.373Z,3.78
2019-02-15T12:56:30.155Z,3.67
2019-02-15T12:58:58.455Z,3.65
2019-02-15T13:01:26.858Z,3.67
2019-02-15T13:03:56.001Z,3.37
2019-02-15T13:06:28.713Z,3.33
2019-02-15T13:08:52.755Z,3.20
2019-02-15T13:11:21.127Z,3.15
2019-02-15T13:13:49.426Z,3.25
2019-02-15T13:16:17.671Z,3.57
2019-02-15T13:18:45.967Z,3.40
2019-02-15T13:21:14.327Z,3.33
2019-02-15T13:23:42.756Z,3.50
2019-02-15T13:26:11.842Z,3.30
2019-02-15T13:28:40.144Z,3.55
2019-02-15T13:31:08.431Z,3.10
2019-02-15T13:33:36.777Z,3.30
2019-02-15T13:36:05.044Z,3.28
2019-02-15T13:38:33.326Z,3.40
2019-02-15T13:41:01.636Z,3.55
2019-02-15T13:43:29.956Z,3.22
2019-02-15T13:45:58.232Z,3.20
2019-02-15T13:48:26.491Z,3.40
2019-02-15T13:50:54.768Z,3.85
2019-02-15T13:53:23.088Z,3.65
2019-02-15T13:55:51.343Z,3.12
2019-02-15T13:58:19.710Z,3.37
2019-02-15T14:00:48.091Z,3.25
2019-02-15T14:03:16.920Z,3.10
2019-02-15T14:05:45.958Z,2.90
2019-02-15T14:08:14.228Z,2.92
2019-02-15T14:10:42.602Z,3.03
2019-02-15T14:13:10.979Z,3.00
2019-02-15T14:15:39.401Z,2.97
2019-02-15T14:18:08.444Z,2.70
2019-02-15T14:20:36.745Z,2.70
2019-02-15T14:23:05.045Z,2.70
2019-02-15T14:25:33.433Z,2.55
2019-02-15T14:28:01.740Z,2.65
2019-02-15T14:30:30.857Z,2.60
2019-02-15T14:32:59.234Z,2.30
2019-02-15T14:35:27.612Z,2.40
2019-02-15T14:37:55.915Z,2.20
2019-02-15T14:40:24.635Z,2.40
2019-02-15T14:42:52.951Z,2.40
2019-02-15T14:45:21.372Z,2.37
2019-02-15T14:47:54.854Z,2.00
2019-02-15T14:50:17.979Z,2.17
2019-02-15T14:52:46.351Z,2.00
2019-02-15T14:55:14.637Z,2.10
2019-02-15T14:57:43.011Z,1.90
2019-02-15T15:00:11.304Z,1.87
2019-02-15T15:02:39.596Z,1.92
2019-02-15T15:05:07.884Z,1.83
2019-02-15T15:07:36.928Z,1.87
2019-02-15T15:10:05.297Z,2.00
2019-02-15T15:12:33.559Z,2.20
2019-02-15T15:15:01.866Z,2.15
2019-02-15T15:17:30.148Z,2.03
2019-02-15T15:19:58.835Z,2.20
2019-02-15T15:22:27.091Z,2.07
2019-02-15T15:24:55.483Z,2.25
2019-02-15T15:27:23.744Z,2.17
2019-02-15T15:29:52.127Z,1.80
2019-02-15T15:32:20.413Z,2.17
2019-02-15T15:34:48.723Z,2.22
2019-02-15T15:37:17.090Z,2.10
2019-02-15T15:39:45.480Z,2.15
2019-02-15T15:42:13.731Z,2.28
2019-02-15T15:44:42.053Z,2.45
2019-02-15T15:47:10.355Z,2.47
2019-02-15T15:49:38.640Z,2.40
2019-02-15T15:52:06.927Z,2.60
2019-02-15T15:54:35.295Z,2.60
2019-02-15T15:57:03.587Z,2.67
2019-02-15T15:59:31.908Z,2.87
2019-02-15T16:02:00.246Z,2.80
2019-02-15T16:04:28.743Z,2.90
2019-02-15T16:06:57.074Z,2.90
2019-02-15T16:09:25.488Z,3.20
2019-02-15T16:11:53.867Z,3.00
2019-02-15T16:14:22.147Z,2.85
2019-02-15T16:16:51.217Z,3.00
2019-02-15T16:19:19.495Z,3.03
2019-02-15T16:21:48.022Z,3.75
2019-02-15T16:24:16.176Z,3.20
2019-02-15T16:26:44.465Z,3.42
2019-02-15T16:29:14.103Z,3.83
2019-02-15T16:31:41.790Z,4.50
2019-02-15T16:34:10.146Z,4.43
2019-02-15T16:36:38.470Z,5.93
2019-02-15T16:39:07.539Z,8.45
2019-02-15T16:41:35.942Z,9.00
2019-02-15T16:44:05.089Z,10.18
2019-02-15T16:46:33.367Z,6.68
2019-02-15T16:49:01.743Z,5.47
2019-02-15T16:51:30.123Z,5.30
2019-02-15T16:53:58.388Z,5.90
2019-02-15T16:56:28.210Z,8.57
2019-02-15T16:58:56.908Z,8.73
2019-02-15T17:01:25.194Z,9.45
2019-02-15T17:03:53.513Z,9.30
2019-02-15T17:06:23.344Z,9.35
2019-02-15T17:08:50.067Z,8.25
2019-02-15T17:11:18.371Z,7.97
2019-02-15T17:13:46.652Z,7.32
2019-02-15T17:16:14.949Z,7.50
2019-02-15T17:18:51.437Z,6.37
2019-02-15T17:21:13.060Z,6.27
2019-02-15T17:23:42.107Z,6.85
2019-02-15T17:26:10.463Z,6.47
2019-02-15T17:28:40.323Z,6.30
2019-02-15T17:31:08.586Z,6.62
2019-02-15T17:33:48.869Z,6.65
2019-02-15T17:36:17.623Z,6.82
2019-02-15T17:38:45.993Z,6.45
2019-02-15T17:41:14.390Z,6.90
2019-02-15T17:43:44.134Z,6.82
2019-02-15T17:46:12.529Z,6.65
2019-02-15T17:48:41.547Z,6.30
2019-02-15T17:51:10.801Z,6.00
2019-02-15T17:53:39.834Z,6.20
2019-02-15T17:56:08.223Z,6.05
2019-02-15T17:58:36.522Z,5.78
2019-02-15T18:01:04.886Z,6.00
2019-02-15T18:03:33.216Z,6.50
2019-02-15T18:06:02.271Z,5.90
2019-02-15T18:08:30.621Z,6.85
2019-02-15T18:10:58.957Z,7.60
2019-02-15T18:13:27.277Z,8.40
2019-02-15T18:15:55.682Z,8.10
2019-02-15T18:18:24.047Z,8.38
2019-02-15T18:20:52.463Z,7.85
2019-02-15T18:23:20.814Z,8.35
2019-02-15T18:25:49.171Z,8.27
2019-02-15T18:28:17.531Z,8.85
2019-02-15T18:30:45.935Z,8.48
2019-02-15T18:33:14.300Z,8.50
2019-02-15T18:35:42.673Z,8.70
2019-02-15T18:38:10.994Z,8.45
2019-02-15T18:40:40.040Z,8.02
2019-02-15T18:43:08.448Z,7.93
2019-02-15T18:45:36.721Z,8.23
2019-02-15T18:48:05.018Z,8.40
2019-02-15T18:50:34.062Z,8.45
2019-02-15T18:53:02.355Z,8.60
2019-02-15T18:55:30.643Z,8.75
2019-02-15T18:57:59.002Z,9.70
2019-02-15T19:00:27.279Z,8.90
2019-02-15T19:02:55.539Z,9.30
2019-02-15T19:05:23.788Z,9.40
2019-02-15T19:07:52.070Z,9.77
2019-02-15T19:10:20.353Z,9.60
2019-02-15T19:12:48.643Z,10.27
2019-02-15T19:15:17.020Z,9.95
2019-02-15T19:17:45.400Z,7.90
2019-02-15T19:20:14.382Z,9.80
2019-02-15T19:22:42.660Z,11.30
2019-02-15T19:25:10.948Z,12.73
2019-02-15T19:27:39.238Z,13.38
2019-02-15T19:30:14.605Z,14.30
2019-02-15T19:32:43.825Z,15.82
2019-02-15T19:35:12.169Z,16.23
2019-02-15T19:37:40.511Z,15.73
2019-02-15T19:40:08.802Z,15.88
2019-02-15T19:42:37.175Z,16.75
2019-02-15T19:45:07.108Z,17.37
2019-02-15T19:47:36.197Z,18.67
2019-02-15T19:50:04.549Z,18.83
2019-02-15T19:52:32.928Z,18.03
2019-02-15T19:55:01.184Z,19.60
2019-02-15T19:57:29.435Z,18.90
2019-02-15T19:59:58.468Z,18.93
2019-02-15T20:02:26.843Z,18.05
2019-02-15T20:04:55.167Z,16.98
2019-02-15T20:07:24.221Z,18.05
2019-02-15T20:09:52.532Z,17.48
2019-02-15T20:12:21.735Z,17.87
2019-02-15T20:14:51.540Z,18.08
2019-02-15T20:17:19.841Z,17.57
2019-02-15T20:19:51.075Z,16.93
2019-02-15T20:22:17.296Z,16.23
2019-02-15T20:24:46.480Z,17.20
2019-02-15T20:27:14.899Z,16.30
2019-02-15T20:29:49.579Z,15.73
2019-02-15T20:32:12.295Z,15.30
2019-02-15T20:34:45.305Z,15.23
2019-02-15T20:37:09.007Z,14.75
2019-02-15T20:39:37.323Z,14.73
2019-02-15T20:42:05.644Z,14.95
2019-02-15T20:44:33.911Z,15.20
2019-02-15T20:47:02.163Z,15.80
2019-02-15T20:49:30.432Z,16.37
2019-02-15T20:51:58.738Z,15.57
2019-02-15T20:54:27.192Z,14.93
2019-02-15T20:56:55.588Z,15.02
2019-02-15T20:59:23.834Z,14.10
2019-02-15T21:01:52.161Z,15.00
2019-02-15T21:04:21.310Z,15.43
2019-02-15T21:06:49.728Z,15.60
2019-02-15T21:09:18.829Z,16.25
2019-02-15T21:11:48.115Z,16.37
2019-02-15T21:14:16.141Z,17.70
2019-02-15T21:16:44.400Z,18.90
2019-02-15T21:19:13.435Z,19.47
2019-02-15T21:21:41.715Z,18.40
2019-02-15T21:24:10.067Z,18.87
2019-02-15T21:26:38.442Z,18.85
2019-02-15T21:29:06.762Z,17.50
2019-02-15T21:31:35.841Z,17.67
2019-02-15T21:34:04.191Z,17.37
2019-02-15T21:36:32.468Z,16.53
2019-02-15T21:39:00.773Z,18.20
2019-02-15T21:41:29.128Z,18.20
2019-02-15T21:43:57.419Z,17.80
2019-02-15T21:46:25.791Z,18.55
2019-02-15T21:48:54.113Z,18.12
2019-02-15T21:51:22.395Z,16.85
2019-02-15T21:53:50.679Z,16.67
2019-02-15T21:56:18.975Z,16.58
2019-02-15T21:58:47.370Z,15.80
2019-02-15T22:01:15.702Z,16.02
2019-02-15T22:03:43.967Z,15.90
2019-02-15T22:06:12.275Z,15.70
2019-02-15T22:08:40.564Z,14.90
2019-02-15T22:11:08.818Z,13.82
2019-02-15T22:13:37.107Z,13.87
2019-02-15T22:16:05.371Z,12.80
2019-02-15T22:18:33.630Z,12.00
2019-02-15T22:21:01.931Z,11.63
2019-02-15T22:23:30.264Z,12.32
2019-02-15T22:25:59.358Z,11.25
2019-02-15T22:28:28.416Z,10.90
2019-02-15T22:30:56.809Z,11.02
2019-02-15T22:33:25.059Z,10.80
2019-02-15T22:35:53.356Z,10.93
2019-02-15T22:38:21.611Z,11.90
2019-02-15T22:40:49.883Z,11.67
2019-02-15T22:43:18.871Z,11.37
2019-02-15T22:45:47.243Z,12.35
2019-02-15T22:48:15.504Z,12.55
2019-02-15T22:50:43.794Z,12.80
2019-02-15T22:53:12.073Z,12.90
2019-02-15T22:55:40.346Z,13.20
2019-02-15T22:58:08.672Z,13.02
2019-02-15T23:03:36.492Z,14.00
2019-02-15T23:06:04.778Z,14.52
2019-02-15T23:08:33.068Z,14.73
2019-02-15T23:11:01.362Z,13.62
2019-02-15T23:13:29.716Z,14.38
2019-02-15T23:15:57.993Z,14.87
2019-02-15T23:18:26.267Z,15.93
2019-02-15T23:20:54.707Z,14.57
2019-02-15T23:23:23.761Z,15.38
2019-02-15T23:25:52.027Z,14.73
2019-02-15T23:28:20.323Z,15.10
2019-02-15T23:30:49.388Z,14.85
2019-02-15T23:33:17.697Z,14.87
2019-02-15T23:35:46.758Z,14.87
2019-02-15T23:38:15.031Z,14.27
2019-02-15T23:40:43.293Z,14.43
2019-02-15T23:43:11.558Z,13.57
2019-02-15T23:45:39.955Z,12.25
2019-02-15T23:48:08.331Z,13.00
2019-02-15T23:50:36.707Z,12.55
2019-02-15T23:53:05.083Z,13.02
2019-02-15T23:55:33.364Z,12.85
2019-02-15T23:58:01.772Z,13.00
